Time;durP1;ratioP1;P1;durP2;ratioP2;P2;SDS_P1;SDS_P2;PMS_P1;PMS_P2;Temp;Humidity;BMP_temperature;BMP_pressure;BME280_temperature;BME280_humidity;BME280_pressure;Samples;Min_cycle;Max_cycle;Signal;HPM_P1;HPM_P2
2023/01/09 05:22:43;;;;;;;0.20;0.20;;;;;;;6.28;100.00;98842.28;5089036;28;20751;-65
2023/01/09 05:25:08;;;;;;;0.43;0.30;;;;;;;6.27;100.00;98847.75;5089107;28;20036;-66
2023/01/09 05:27:34;;;;;;;4.07;0.60;;;;;;;6.24;100.00;98844.44;5088829;28;20463;-65
2023/01/09 05:29:59;;;;;;;0.40;0.40;;;;;;;6.24;100.00;98848.91;5089022;28;20047;-67
2023/01/09 05:32:25;;;;;;;0.10;0.10;;;;;;;6.21;100.00;98850.09;5087650;28;20048;-66
2023/01/09 05:34:50;;;;;;;0.98;0.52;;;;;;;6.21;100.00;98858.03;5089310;28;20032;-67
2023/01/09 05:37:15;;;;;;;0.30;0.30;;;;;;;6.19;100.00;98862.69;5088632;28;20484;-67
2023/01/09 05:39:41;;;;;;;5.07;0.50;;;;;;;6.20;100.00;98868.78;5088906;28;20064;-66
2023/01/09 05:42:06;;;;;;;0.45;0.35;;;;;;;6.20;100.00;98868.78;5088745;28;20041;-66
2023/01/09 05:44:32;;;;;;;0.10;0.10;;;;;;;6.22;100.00;98872.06;5088685;28;20058;-66
2023/01/09 05:46:57;;;;;;;1.08;0.50;;;;;;;6.18;100.00;98876.88;5088541;28;20036;-66
2023/01/09 05:49:22;;;;;;;0.60;0.47;;;;;;;6.25;100.00;98875.16;5088758;28;20422;-66
2023/01/09 05:51:48;;;;;;;1.35;0.38;;;;;;;6.27;100.00;98890.06;5088522;28;20082;-66
2023/01/09 05:54:13;;;;;;;0.32;0.28;;;;;;;6.33;100.00;98873.47;5088646;28;20044;-66
2023/01/09 05:56:39;;;;;;;0.30;0.30;;;;;;;6.44;100.00;98883.59;5088474;28;20413;-65
2023/01/09 05:59:04;;;;;;;0.20;0.20;;;;;;;6.49;100.00;98878.59;5088156;28;20512;-66
2023/01/09 06:01:29;;;;;;;0.30;0.30;;;;;;;6.54;100.00;98881.53;5088524;28;20054;-66
2023/01/09 06:03:55;;;;;;;0.40;0.20;;;;;;;6.62;100.00;98876.16;5088480;28;20033;-66
2023/01/09 06:06:21;;;;;;;0.30;0.30;;;;;;;6.68;99.83;98880.72;5088431;28;20040;-66
2023/01/09 06:08:47;;;;;;;0.20;0.20;;;;;;;6.70;100.00;98883.19;5088008;28;20065;-66
2023/01/09 06:11:12;;;;;;;0.17;0.17;;;;;;;6.79;99.30;98880.28;5088250;28;20117;-66
2023/01/09 06:13:37;;;;;;;0.35;0.35;;;;;;;6.78;100.00;98893.69;5088387;28;20094;-66
2023/01/09 06:16:03;;;;;;;0.45;0.45;;;;;;;6.75;100.00;98886.13;5088124;28;20467;-65
2023/01/09 06:18:28;;;;;;;0.40;0.40;;;;;;;6.71;100.00;98888.28;5087770;28;20039;-66
2023/01/09 06:20:54;;;;;;;0.20;0.20;;;;;;;6.69;100.00;98890.31;5088014;28;20408;-66
2023/01/09 06:23:19;;;;;;;0.22;0.22;;;;;;;6.74;99.47;98887.94;5088121;28;20045;-65
2023/01/09 06:25:44;;;;;;;1.27;0.47;;;;;;;6.71;100.00;98888.28;5087853;28;20044;-65
2023/01/09 06:28:10;;;;;;;0.15;0.15;;;;;;;6.77;97.85;98892.88;5086562;28;20036;-66
2023/01/09 06:30:35;;;;;;;0.73;0.30;;;;;;;6.84;98.11;98885.00;5087773;28;20048;-66
2023/01/09 06:33:01;;;;;;;1.58;0.30;;;;;;;6.86;96.42;98883.03;5080216;28;20055;-66
2023/01/09 06:35:26;;;;;;;2.00;0.40;;;;;;;6.87;95.89;98886.50;5074252;28;20513;-66
2023/01/09 06:37:52;;;;;;;0.28;0.28;;;;;;;6.91;96.41;98885.97;5074048;28;20040;-65
2023/01/09 06:40:19;;;;;;;0.88;0.32;;;;;;;6.85;96.36;98878.75;5074186;28;20051;-65
2023/01/09 06:42:45;;;;;;;1.13;0.47;;;;;;;6.81;96.23;98882.75;5074195;28;20036;-65
2023/01/09 06:45:12;;;;;;;0.52;0.38;;;;;;;6.79;95.46;98893.53;5074162;28;20055;-65
2023/01/09 06:47:38;;;;;;;0.28;0.28;;;;;;;6.79;95.27;98895.34;5073675;28;20028;-65
2023/01/09 06:50:04;;;;;;;1.05;0.57;;;;;;;6.70;96.10;98899.88;5073956;28;20036;-65
2023/01/09 06:52:29;;;;;;;0.32;0.30;;;;;;;6.68;95.94;98893.97;5074074;28;20401;-66
2023/01/09 06:54:55;;;;;;;0.57;0.35;;;;;;;6.75;95.22;98905.47;5074125;28;20041;-65
2023/01/09 06:57:20;;;;;;;2.08;0.80;;;;;;;6.72;94.65;98905.84;5073539;28;20082;-66
2023/01/09 06:59:46;;;;;;;2.67;0.60;;;;;;;6.84;93.18;98913.31;5073761;28;20398;-66
2023/01/09 07:02:17;;;;;;;1.85;0.70;;;;;;;6.80;93.93;98908.41;5073794;28;20064;-65
2023/01/09 07:04:42;;;;;;;0.88;0.75;;;;;;;6.83;93.51;98915.13;5073922;28;20426;-66
2023/01/09 07:07:07;;;;;;;1.60;0.40;;;;;;;6.90;94.14;98925.81;5073422;28;20040;-66
2023/01/09 07:09:33;;;;;;;1.50;0.90;;;;;;;6.90;92.72;98912.59;5073425;28;20067;-66
2023/01/09 07:11:58;;;;;;;6.40;0.95;;;;;;;6.92;94.04;98910.59;5072255;28;20045;-66
2023/01/09 07:14:23;;;;;;;2.05;1.17;;;;;;;6.92;92.52;98924.66;5073572;28;20041;-66
2023/01/09 07:16:49;;;;;;;4.53;0.85;;;;;;;6.95;90.96;98918.16;5073673;28;20040;-66
2023/01/09 07:19:14;;;;;;;0.65;0.50;;;;;;;7.00;90.36;98913.16;5073199;28;20044;-66
2023/01/09 07:21:40;;;;;;;2.75;0.40;;;;;;;7.07;88.89;98936.06;5073373;28;20039;-66
2023/01/09 07:24:05;;;;;;;1.08;0.60;;;;;;;7.10;90.28;98931.41;5073385;28;20044;-66
2023/01/09 07:26:30;;;;;;;1.08;0.60;;;;;;;7.13;89.92;98925.75;5073232;28;20037;-66
2023/01/09 07:28:56;;;;;;;2.92;0.77;;;;;;;7.19;87.47;98931.13;5073030;28;20044;-66
2023/01/09 07:31:21;;;;;;;0.43;0.22;;;;;;;7.14;89.69;98930.03;5073166;28;20702;-65
2023/01/09 07:33:46;;;;;;;1.02;0.93;;;;;;;7.17;88.37;98935.81;5073098;28;20043;-66
2023/01/09 07:36:12;;;;;;;0.77;0.40;;;;;;;7.20;87.63;98934.59;5073151;28;20037;-61
2023/01/09 07:38:38;;;;;;;1.10;0.63;;;;;;;7.21;87.73;98937.06;5072769;28;20045;-61
2023/01/09 07:41:04;;;;;;;1.98;1.05;;;;;;;7.28;87.19;98943.28;5073073;28;20366;-60
2023/01/09 07:43:29;;;;;;;1.75;1.05;;;;;;;7.28;86.49;98935.31;5072801;28;20086;-69
2023/01/09 07:45:55;;;;;;;1.45;0.50;;;;;;;7.25;86.03;98933.06;5072117;28;20044;-72
2023/01/09 07:48:20;;;;;;;1.33;0.60;;;;;;;7.34;85.33;98934.59;5072586;28;20036;-70
2023/01/09 07:50:45;;;;;;;3.50;0.95;;;;;;;7.35;85.44;98944.19;5072821;28;20037;-70
2023/01/09 07:53:11;;;;;;;1.15;0.80;;;;;;;7.33;85.70;98946.19;5072711;28;20183;-72
2023/01/09 07:55:36;;;;;;;0.38;0.38;;;;;;;7.39;85.73;98949.13;5072669;28;20044;-71
2023/01/09 07:58:01;;;;;;;5.28;0.70;;;;;;;7.41;85.11;98955.06;5072462;28;20036;-71
2023/01/09 08:00:27;;;;;;;1.52;0.73;;;;;;;7.47;83.70;98964.91;5071469;28;20046;-72
2023/01/09 08:02:53;;;;;;;0.82;0.57;;;;;;;7.52;83.21;98952.75;5072667;28;20032;-70
2023/01/09 08:05:19;;;;;;;4.63;0.70;;;;;;;7.60;82.95;98967.72;5071368;28;20059;-71
2023/01/09 08:07:45;;;;;;;1.45;0.75;;;;;;;7.66;83.41;98960.88;5072308;28;20250;-71
2023/01/09 08:10:11;;;;;;;2.65;0.88;;;;;;;7.72;83.43;98966.25;5072529;28;20512;-70
2023/01/09 08:12:36;;;;;;;5.55;1.13;;;;;;;7.83;82.12;98952.53;5072370;28;20508;-71
2023/01/09 08:15:02;;;;;;;0.77;0.52;;;;;;;7.83;82.26;98949.06;5072603;28;20036;-71
2023/01/09 08:17:27;;;;;;;3.90;1.15;;;;;;;7.96;81.52;98961.63;5071849;28;20032;-71
2023/01/09 08:19:52;;;;;;;3.95;0.80;;;;;;;8.06;82.25;98947.03;5072357;28;20134;-70
2023/01/09 08:22:18;;;;;;;1.55;0.52;;;;;;;8.11;81.67;98959.75;5070953;28;20105;-72
2023/01/09 08:24:43;;;;;;;2.42;0.45;;;;;;;8.14;80.53;98951.41;5072268;28;20406;-71
2023/01/09 08:27:09;;;;;;;3.50;0.70;;;;;;;8.22;79.68;98940.69;5071906;28;20041;-70
2023/01/09 08:29:35;;;;;;;0.30;0.30;;;;;;;8.19;80.50;98940.22;5070861;28;20045;-71
2023/01/09 08:32:00;;;;;;;7.90;1.13;;;;;;;8.30;80.05;98948.50;5071986;28;20044;-71
2023/01/09 08:34:25;;;;;;;3.10;1.05;;;;;;;8.35;80.76;98938.19;5071569;28;20037;-70
2023/01/09 08:36:52;;;;;;;8.05;0.63;;;;;;;8.37;78.46;98933.50;5069836;28;20045;-70
2023/01/09 08:39:17;;;;;;;2.90;0.75;;;;;;;8.41;78.59;98933.94;5071366;28;20032;-70
2023/01/09 08:47:12;;;;;;;1.58;0.77;;;;;;;8.40;79.40;98935.75;5071534;28;20120;-71
2023/01/09 08:49:38;;;;;;;3.22;0.43;;;;;;;8.37;78.25;98944.13;5071886;28;20127;-70
2023/01/09 08:52:05;;;;;;;1.00;0.38;;;;;;;8.42;78.74;98940.91;5071758;28;20115;-69
2023/01/09 08:54:30;;;;;;;0.95;0.40;;;;;;;8.38;80.45;98945.75;5071745;28;20460;-71
2023/01/09 08:56:56;;;;;;;5.38;0.50;;;;;;;8.36;79.57;98934.53;5071339;28;20123;-70
2023/01/09 08:59:22;;;;;;;0.50;0.30;;;;;;;8.51;80.18;98947.69;5071538;28;20044;-71
2023/01/09 09:01:47;;;;;;;8.10;0.93;;;;;;;8.55;79.05;98943.66;5071568;28;20028;-70
2023/01/09 09:04:13;;;;;;;1.02;0.35;;;;;;;8.67;78.06;98949.25;5071866;28;20473;-72
2023/01/09 09:06:38;;;;;;;2.60;0.50;;;;;;;8.70;77.92;98951.53;5071483;28;20044;-70
2023/01/09 09:09:05;;;;;;;1.05;0.15;;;;;;;8.87;77.09;98954.75;5071197;28;20044;-71
2023/01/09 09:11:32;;;;;;;0.20;0.20;;;;;;;8.96;76.62;98941.09;5071364;28;20033;-70
2023/01/09 09:13:58;;;;;;;0.95;0.50;;;;;;;9.00;77.08;98953.97;5071498;28;20041;-71
2023/01/09 09:16:26;;;;;;;2.42;0.40;;;;;;;8.98;76.76;98933.75;5071360;28;20024;-72
2023/01/09 09:18:52;;;;;;;0.40;0.40;;;;;;;8.92;77.32;98953.13;5071133;28;20039;-70
2023/01/09 09:21:19;;;;;;;1.88;0.50;;;;;;;8.97;77.06;98944.56;5071203;28;20041;-72
2023/01/09 09:23:45;;;;;;;0.43;0.30;;;;;;;8.88;76.22;98951.06;5071445;28;20051;-71
2023/01/09 09:26:11;;;;;;;0.30;0.30;;;;;;;8.84;76.41;98949.81;5071296;28;20032;-71
2023/01/09 09:28:36;;;;;;;3.67;0.55;;;;;;;8.90;75.99;98949.84;5070994;28;20040;-72
2023/01/09 09:31:05;;;;;;;0.85;0.50;;;;;;;8.96;75.45;98945.59;5071166;28;20037;-71
2023/01/09 09:33:31;;;;;;;1.83;0.45;;;;;;;9.04;75.36;98941.97;5069914;28;20037;-70
2023/01/09 09:35:59;;;;;;;3.00;0.40;;;;;;;9.34;74.32;98953.19;5071192;28;20037;-71
2023/01/09 09:38:24;;;;;;;1.88;0.47;;;;;;;9.72;72.60;98951.72;5070964;28;20051;-70
2023/01/09 09:44:53;;;;;;;1.55;0.63;;;;;;;9.75;70.36;98958.47;5071128;28;20032;-72
2023/01/09 09:47:44;;;;;;;1.25;0.40;;;;;;;9.88;70.25;98961.19;5070690;28;20055;-71
2023/01/09 09:50:18;;;;;;;0.30;0.30;;;;;;;10.17;70.47;98956.53;5071181;28;20051;-72
2023/01/09 09:53:05;;;;;;;1.40;0.32;;;;;;;10.03;67.93;98961.00;5071118;28;20032;-71
2023/01/09 09:55:33;;;;;;;0.70;0.57;;;;;;;9.87;69.95;98956.06;5071106;28;20048;-70
2023/01/09 09:58:02;;;;;;;2.78;0.80;;;;;;;9.96;70.33;98955.66;5070862;28;20692;-71
2023/01/09 10:00:27;;;;;;;0.65;0.65;;;;;;;10.15;68.67;98951.44;5070920;28;20039;-70
2023/01/09 10:03:12;;;;;;;0.40;0.40;;;;;;;10.20;68.70;98959.63;5069779;28;20370;-70
2023/01/09 10:05:44;;;;;;;0.25;0.25;;;;;;;10.46;66.59;98956.22;5071143;28;20041;-71
2023/01/09 10:08:21;;;;;;;0.85;0.60;;;;;;;10.93;66.58;98956.22;5072170;28;20477;-71
2023/01/09 10:10:52;;;;;;;0.50;0.50;;;;;;;11.35;63.18;98949.59;5074689;28;20127;-70
2023/01/09 10:16:24;;;;;;;3.60;0.80;;;;;;;11.82;59.97;98955.59;5074699;28;20032;-71
2023/01/09 10:19:15;;;;;;;4.18;0.60;;;;;;;12.17;60.60;98966.69;5074325;28;20051;-71
2023/01/09 10:22:09;;;;;;;0.30;0.30;;;;;;;11.85;58.98;98971.16;5074492;28;20093;-71
2023/01/09 10:24:56;;;;;;;1.00;0.50;;;;;;;11.90;60.53;98974.03;5073780;28;20040;-71
2023/01/09 10:27:50;;;;;;;1.17;0.32;;;;;;;12.01;59.47;98969.88;5074190;28;20374;-71
2023/01/09 10:30:37;;;;;;;1.60;0.63;;;;;;;12.13;58.88;98971.66;5073321;28;20071;-72
2023/01/09 10:33:25;;;;;;;0.55;0.43;;;;;;;11.90;59.51;98963.34;5074551;28;20040;-71
2023/01/09 10:36:05;;;;;;;2.78;0.93;;;;;;;12.35;58.92;98965.97;5074974;28;20394;-71
2023/01/09 10:38:35;;;;;;;1.02;0.57;;;;;;;13.12;56.54;98950.56;5074257;28;20493;-71
2023/01/09 10:41:14;;;;;;;0.90;0.65;;;;;;;13.18;55.48;98949.66;5074380;28;20033;-70
2023/01/09 10:43:57;;;;;;;0.95;0.60;;;;;;;13.03;55.61;98952.66;5074105;28;20051;-72
2023/01/09 10:46:27;;;;;;;2.67;0.68;;;;;;;12.49;56.88;98949.63;5074124;28;20489;-73
2023/01/09 10:48:58;;;;;;;1.05;0.50;;;;;;;12.96;55.86;98944.72;5074095;28;20726;-70
2023/01/09 10:51:34;;;;;;;0.55;0.50;;;;;;;13.06;55.80;98940.75;5072682;28;20166;-71
2023/01/09 10:54:00;;;;;;;2.05;0.95;;;;;;;13.22;55.60;98945.53;5074052;28;20485;-70
2023/01/09 10:56:38;;;;;;;1.45;0.45;;;;;;;13.12;55.63;98945.19;5073911;28;20028;-71
2023/01/09 10:59:04;;;;;;;0.68;0.52;;;;;;;13.43;54.39;98942.44;5073642;28;20043;-71
2023/01/09 11:01:32;;;;;;;0.45;0.40;;;;;;;13.49;53.67;98935.34;5073815;28;20036;-70
2023/01/09 11:04:01;;;;;;;0.93;0.60;;;;;;;12.99;54.46;98922.91;5073831;28;20024;-72
2023/01/09 11:06:58;;;;;;;0.68;0.22;;;;;;;13.25;54.13;98926.38;5073667;28;20120;-72
2023/01/09 11:09:24;;;;;;;0.55;0.40;;;;;;;12.85;55.44;98934.75;5065417;28;20040;-71
2023/01/09 11:11:49;;;;;;;0.82;0.50;;;;;;;12.90;55.77;98937.56;5073852;28;20465;-71
2023/01/09 11:14:21;;;;;;;2.03;0.60;;;;;;;13.22;54.92;98929.47;5073709;28;20055;-71
2023/01/09 11:16:55;;;;;;;0.38;0.20;;;;;;;13.59;54.31;98941.00;5072523;28;20114;-71
2023/01/09 11:19:21;;;;;;;4.47;0.52;;;;;;;13.00;55.38;98947.78;5073154;28;20037;-72
2023/01/09 11:21:47;;;;;;;1.90;0.40;;;;;;;12.45;57.16;98944.94;5073259;28;20105;-71
2023/01/09 11:24:22;;;;;;;1.13;0.40;;;;;;;12.16;59.23;98959.72;5073409;28;20024;-71
2023/01/09 11:26:50;;;;;;;0.30;0.30;;;;;;;11.48;64.38;98970.06;5073328;28;20032;-70
2023/01/09 11:29:18;;;;;;;1.25;0.43;;;;;;;10.75;72.08;98968.31;5073140;28;20032;-71
2023/01/09 11:32:23;;;;;;;1.80;0.57;;;;;;;10.17;82.35;98984.00;5073317;28;20043;-70
2023/01/09 11:34:49;;;;;;;1.38;0.30;;;;;;;9.87;84.72;98994.13;5096310;22;20577;-65
2023/01/09 11:37:24;;;;;;;2.63;0.60;;;;;;;9.50;88.18;98984.75;5072793;28;20461;-67
2023/01/09 11:39:50;;;;;;;1.80;0.40;;;;;;;8.96;91.15;98991.56;5073064;28;20041;-66
2023/01/09 11:45:21;;;;;;;1.25;0.60;;;;;;;8.42;99.29;98981.53;5072687;28;20032;-68
2023/01/09 11:47:46;;;;;;;4.88;0.70;;;;;;;8.51;99.26;98987.50;5072535;28;20131;-68
2023/01/09 11:50:18;;;;;;;1.63;0.50;;;;;;;8.32;97.29;98967.72;5072860;28;20124;-68
2023/01/09 11:52:44;;;;;;;2.20;0.73;;;;;;;8.26;99.14;98979.06;5072711;28;20044;-67
2023/01/09 11:55:14;;;;;;;1.30;0.30;;;;;;;8.24;100.00;98967.03;5072691;28;20037;-67
2023/01/09 11:57:40;;;;;;;0.77;0.52;;;;;;;8.65;100.00;98960.06;5072560;28;20041;-67
2023/01/09 12:00:23;;;;;;;2.75;0.50;;;;;;;9.49;94.43;98953.88;5038283;28;20114;-67
2023/01/09 12:03:09;;;;;;;1.67;0.43;;;;;;;10.10;88.25;98961.03;5038409;28;20111;-66
2023/01/09 12:06:02;;;;;;;0.52;0.30;;;;;;;10.00;86.83;98948.94;5072629;28;20042;-68
2023/01/09 12:08:49;;;;;;;1.00;0.60;;;;;;;9.63;88.10;98949.44;5072319;28;20044;-66
2023/01/09 12:11:24;;;;;;;1.60;0.70;;;;;;;9.32;87.99;98955.19;5071114;28;20041;-67
2023/01/09 12:14:18;;;;;;;0.85;0.45;;;;;;;9.33;88.75;98962.19;5072480;28;20526;-67
2023/01/09 12:17:01;;;;;;;0.50;0.50;;;;;;;9.47;87.34;98962.03;5072448;28;20029;-67
2023/01/09 12:19:56;;;;;;;2.60;0.73;;;;;;;9.88;86.93;98979.81;5072241;28;20055;-67
2023/01/09 12:22:42;;;;;;;4.78;1.10;;;;;;;9.44;86.16;98975.72;5036103;28;20048;-66
2023/01/09 12:25:17;;;;;;;2.88;0.65;;;;;;;9.46;87.56;98968.38;5072161;28;20033;-67
2023/01/09 12:27:53;;;;;;;0.40;0.30;;;;;;;9.09;88.72;98977.56;5072256;28;20115;-67
2023/01/09 12:30:44;;;;;;;1.85;0.90;;;;;;;9.03;90.69;98985.47;5054013;28;20617;-68
2023/01/09 12:33:31;;;;;;;5.35;0.65;;;;;;;8.53;92.72;98974.88;5054127;28;20040;-68
2023/01/09 12:36:09;;;;;;;2.75;0.85;;;;;;;8.63;93.36;98983.34;5071874;28;20045;-66
2023/01/09 12:38:46;;;;;;;2.20;1.00;;;;;;;8.41;94.97;98973.72;5071647;28;20079;-68
2023/01/09 12:41:21;;;;;;;3.33;0.93;;;;;;;8.41;95.67;98984.34;5054399;28;20037;-68
2023/01/09 12:43:59;;;;;;;0.88;0.40;;;;;;;8.35;94.85;98987.75;5072244;28;20095;-67
2023/01/09 12:46:28;;;;;;;;;;;;;;;8.41;96.00;98982.53;5037900;28;20033;-67
2023/01/09 12:48:56;;;;;;;3.60;0.60;;;;;;;8.28;95.00;98981.53;5071509;28;20306;-68
2023/01/09 12:51:36;;;;;;;0.45;0.40;;;;;;;8.21;94.57;98986.78;5071829;28;20028;-68
2023/01/09 12:54:12;;;;;;;0.52;0.50;;;;;;;8.22;94.40;98996.41;5068911;28;20028;-67
2023/01/09 12:56:44;;;;;;;2.55;0.73;;;;;;;8.15;95.13;98990.19;5062477;28;20162;-67
2023/01/09 12:59:31;;;;;;;2.00;0.88;;;;;;;8.23;94.14;98998.03;5059765;28;20037;-67
2023/01/09 13:02:20;;;;;;;2.50;0.60;;;;;;;8.29;93.26;99005.25;5059655;28;20524;-67
2023/01/09 13:04:59;;;;;;;1.20;0.47;;;;;;;8.20;93.06;99011.66;5062011;28;20108;-67
2023/01/09 13:08:03;;;;;;;2.03;0.50;;;;;;;8.23;93.39;99013.94;5061505;28;20116;-66
2023/01/09 13:10:34;;;;;;;0.77;0.32;;;;;;;8.26;94.11;99018.88;5047283;28;20519;-66
2023/01/09 13:13:09;;;;;;;1.15;0.50;;;;;;;8.18;95.35;99026.13;5060995;28;20119;-66
2023/01/09 13:15:40;;;;;;;3.33;0.50;;;;;;;8.08;95.69;99035.19;5028621;28;20032;-67
2023/01/09 13:18:28;;;;;;;0.50;0.50;;;;;;;8.03;96.55;99032.31;5027908;28;20043;-68
2023/01/09 13:20:55;;;;;;;3.65;0.65;;;;;;;8.06;97.10;99031.91;5044285;28;20123;-67
2023/01/09 13:23:39;;;;;;;2.17;0.60;;;;;;;7.95;98.05;99034.22;5061429;28;20025;-68
2023/01/09 13:26:08;;;;;;;1.10;0.90;;;;;;;7.95;99.18;99036.88;5062086;28;20039;-68
2023/01/09 13:28:45;;;;;;;3.13;0.63;;;;;;;8.07;99.06;99032.72;5061262;28;20436;-67
2023/01/09 13:31:38;;;;;;;1.42;0.60;;;;;;;7.86;97.87;99031.69;5060066;28;20085;-66
2023/01/09 13:34:12;;;;;;;3.83;0.95;;;;;;;7.94;98.12;99028.09;5046743;28;20107;-67
2023/01/09 13:36:44;;;;;;;1.33;0.70;;;;;;;7.86;98.57;99029.03;5027502;28;20107;-68
2023/01/09 13:39:20;;;;;;;3.55;0.70;;;;;;;7.94;97.44;99029.94;5068280;28;20033;-66
2023/01/09 13:44:35;;;;;;;1.60;0.50;;;;;;;7.99;98.61;99028.38;5075605;28;20100;-65
2023/01/09 13:47:22;;;;;;;2.58;0.90;;;;;;;8.10;99.57;99037.69;5075250;28;20029;-68
2023/01/09 13:49:47;;;;;;;0.80;0.43;;;;;;;8.13;100.00;99043.41;5075600;28;20122;-66
2023/01/09 13:52:35;;;;;;;0.30;0.30;;;;;;;8.25;96.79;99050.91;5075368;28;20086;-67
2023/01/09 13:55:22;;;;;;;2.33;0.50;;;;;;;8.31;96.77;99042.19;5075271;28;20048;-66
2023/01/09 13:58:07;;;;;;;1.27;0.70;;;;;;;8.32;96.78;99057.09;5075138;28;20041;-66
2023/01/09 14:00:33;;;;;;;1.13;0.60;;;;;;;8.35;97.49;99044.31;5057518;28;20032;-66
2023/01/09 14:03:04;;;;;;;8.77;0.88;;;;;;;8.32;95.98;99059.75;5057147;28;20052;-66
2023/01/09 14:05:30;;;;;;;2.30;0.75;;;;;;;8.30;96.32;99067.09;5074801;28;20585;-67
2023/01/09 14:08:10;;;;;;;3.25;1.02;;;;;;;8.25;97.83;99069.47;5056787;28;20054;-66
2023/01/09 14:10:47;;;;;;;2.95;0.80;;;;;;;8.22;99.90;99080.47;5074844;28;20040;-66
2023/01/09 14:13:17;;;;;;;1.60;0.80;;;;;;;8.21;100.00;99089.41;5075078;28;20040;-67
2023/01/09 14:15:45;;;;;;;2.08;1.27;;;;;;;8.12;100.00;99081.56;5074761;28;20120;-65
2023/01/09 14:18:32;;;;;;;0.80;0.60;;;;;;;8.05;100.00;99107.19;5074562;28;20039;-67
2023/01/09 14:21:01;;;;;;;0.68;0.50;;;;;;;7.89;100.00;99115.34;5056778;28;20272;-67
2023/01/09 14:23:34;;;;;;;1.08;0.70;;;;;;;7.61;100.00;99129.22;5074554;28;20112;-66
2023/01/09 14:26:01;;;;;;;0.20;0.20;;;;;;;7.26;100.00;99141.31;5074721;28;20043;-66
2023/01/09 14:28:28;;;;;;;0.40;0.20;;;;;;;7.14;100.00;99133.97;5056533;28;20422;-66
2023/01/09 14:30:54;;;;;;;1.38;0.30;;;;;;;6.66;100.00;99149.19;5074391;28;20043;-65
2023/01/09 14:33:20;;;;;;;1.75;0.47;;;;;;;6.21;100.00;99151.56;5074373;28;20473;-65
2023/01/09 14:35:57;;;;;;;2.72;0.38;;;;;;;6.21;100.00;99148.91;5074184;28;20021;-66
2023/01/09 14:38:29;;;;;;;0.98;0.35;;;;;;;6.08;100.00;99156.56;5074040;28;20032;-66
2023/01/09 14:41:04;;;;;;;0.77;0.30;;;;;;;5.95;100.00;99151.81;5056487;28;20036;-66
2023/01/09 14:43:58;;;;;;;0.28;0.28;;;;;;;5.84;100.00;99159.25;5074293;28;20044;-67
2023/01/09 14:46:28;;;;;;;1.90;0.60;;;;;;;5.75;100.00;99166.38;5074328;28;20429;-66
2023/01/09 14:49:32;;;;;;;0.52;0.38;;;;;;;5.70;100.00;99168.69;5073788;28;20028;-67
2023/01/09 14:52:00;;;;;;;1.17;0.68;;;;;;;5.68;100.00;99165.41;5074279;28;20409;-66
2023/01/09 14:54:35;;;;;;;0.80;0.63;;;;;;;5.69;100.00;99177.63;5073487;28;20151;-66
2023/01/09 14:57:01;;;;;;;0.50;0.50;;;;;;;5.69;100.00;99182.91;5073766;28;20032;-67
2023/01/09 14:59:27;;;;;;;1.30;0.88;;;;;;;5.68;100.00;99182.09;5073776;28;20068;-67
2023/01/09 15:01:56;;;;;;;0.85;0.40;;;;;;;5.64;100.00;99196.59;5055912;28;20017;-67
2023/01/09 15:04:34;;;;;;;0.55;0.47;;;;;;;5.63;100.00;99202.06;5073763;28;20036;-67
2023/01/09 15:07:04;;;;;;;0.30;0.30;;;;;;;5.65;100.00;99200.91;5073710;28;20119;-66
2023/01/09 15:09:44;;;;;;;0.50;0.20;;;;;;;5.75;100.00;99205.19;5073860;28;20539;-67
2023/01/09 15:12:19;;;;;;;0.70;0.70;;;;;;;5.69;100.00;99207.50;5073767;28;20088;-66
2023/01/09 15:14:49;;;;;;;0.30;0.30;;;;;;;5.67;100.00;99203.38;5055734;28;20397;-66
2023/01/09 15:17:24;;;;;;;1.83;0.90;;;;;;;5.70;100.00;99217.09;5073432;28;20044;-66
2023/01/09 15:19:51;;;;;;;0.65;0.40;;;;;;;5.69;100.00;99215.44;5055510;28;20038;-66
2023/01/09 15:22:28;;;;;;;1.27;0.70;;;;;;;5.67;100.00;99213.94;5073445;28;20546;-66
2023/01/09 15:24:54;;;;;;;1.85;0.70;;;;;;;5.75;100.00;99207.84;5073424;28;20044;-66
2023/01/09 15:27:22;;;;;;;2.50;0.73;;;;;;;5.70;100.00;99213.63;5055277;28;20355;-66
2023/01/09 15:29:49;;;;;;;3.42;0.90;;;;;;;5.71;100.00;99218.72;5073206;28;20040;-67
2023/01/09 15:32:22;;;;;;;0.73;0.57;;;;;;;5.73;100.00;99221.19;5073372;28;20113;-67
2023/01/09 15:34:48;;;;;;;0.38;0.38;;;;;;;5.66;100.00;99222.84;5073100;28;20547;-66
2023/01/09 15:37:37;;;;;;;0.20;0.20;;;;;;;5.71;100.00;99229.28;5072965;28;20036;-66
2023/01/09 15:40:06;;;;;;;0.77;0.55;;;;;;;5.70;100.00;99227.66;5062705;28;20064;-67
2023/01/09 15:42:56;;;;;;;0.35;0.35;;;;;;;5.82;100.00;99236.06;5073077;28;20045;-67
2023/01/09 15:45:34;;;;;;;0.30;0.30;;;;;;;5.75;100.00;99236.91;5072986;28;20040;-66
2023/01/09 15:48:14;;;;;;;5.03;0.80;;;;;;;5.77;100.00;99232.28;5072666;28;20036;-66
2023/01/09 15:50:41;;;;;;;0.60;0.60;;;;;;;5.77;100.00;99227.81;5072808;28;20033;-67
2023/01/09 15:53:15;;;;;;;2.78;1.75;;;;;;;5.73;100.00;99235.22;5072725;28;20033;-66
2023/01/09 15:55:41;;;;;;;0.98;0.70;;;;;;;5.76;100.00;99235.91;5072779;28;20067;-66
2023/01/09 15:58:29;;;;;;;1.00;0.50;;;;;;;5.71;100.00;99239.03;5072622;28;20036;-66
2023/01/09 16:01:00;;;;;;;1.35;0.60;;;;;;;5.72;100.00;99236.22;5055014;28;20043;-66
2023/01/09 16:03:26;;;;;;;0.50;0.50;;;;;;;5.73;100.00;99240.50;5055526;28;20462;-66
2023/01/09 16:06:01;;;;;;;0.40;0.40;;;;;;;5.77;100.00;99245.47;5071808;28;20090;-66
2023/01/09 16:08:30;;;;;;;0.40;0.40;;;;;;;5.78;100.00;99252.41;5072278;28;20040;-66
2023/01/09 16:11:03;;;;;;;3.05;0.80;;;;;;;5.81;100.00;99255.56;5072272;28;20606;-66
2023/01/09 16:13:31;;;;;;;0.82;0.60;;;;;;;5.84;100.00;99270.25;5072321;28;20040;-66
2023/01/09 16:16:00;;;;;;;0.50;0.50;;;;;;;5.82;100.00;99261.69;5072264;28;20513;-66
2023/01/09 16:18:34;;;;;;;1.27;0.32;;;;;;;5.79;100.00;99268.09;5072027;28;20515;-66
2023/01/09 16:21:20;;;;;;;0.75;0.68;;;;;;;5.85;100.00;99279.81;5072204;28;20355;-66
2023/01/09 16:23:57;;;;;;;2.55;0.90;;;;;;;5.85;100.00;99293.88;5058105;28;20063;-67
2023/01/09 16:26:25;;;;;;;0.50;0.50;;;;;;;5.89;100.00;99283.81;5072216;28;20036;-67
2023/01/09 16:28:50;;;;;;;;;;;;;;;5.91;100.00;99287.94;5072418;28;20032;-67
2023/01/09 16:31:30;;;;;;;3.15;0.85;;;;;;;5.90;100.00;99291.56;5071853;28;19950;-66
2023/01/09 16:34:04;;;;;;;1.65;0.90;;;;;;;5.93;100.00;99306.28;5053966;28;20127;-66
2023/01/09 16:36:30;;;;;;;3.20;0.82;;;;;;;5.88;100.00;99309.41;5071968;28;20033;-66
2023/01/09 16:38:56;;;;;;;0.57;0.57;;;;;;;5.89;100.00;99304.94;5071721;28;20044;-67
2023/01/09 16:44:10;;;;;;;0.88;0.57;;;;;;;5.88;100.00;99309.41;5071686;28;20036;-67
2023/01/09 16:46:39;;;;;;;2.53;0.80;;;;;;;5.90;100.00;99314.53;5054135;28;20090;-67
2023/01/09 16:49:16;;;;;;;2.05;0.60;;;;;;;5.86;100.00;99314.00;5071481;28;20036;-66
2023/01/09 16:51:41;;;;;;;9.90;0.70;;;;;;;5.92;100.00;99317.84;5072010;28;20090;-70
2023/01/09 16:54:07;;;;;;;0.95;0.73;;;;;;;5.86;100.00;99326.41;5072601;28;20045;-71
2023/01/09 16:56:34;;;;;;;4.85;1.00;;;;;;;5.82;100.00;99333.03;5072112;28;20048;-69
2023/01/09 16:58:59;;;;;;;0.95;0.70;;;;;;;5.87;100.00;99343.94;5053665;28;20033;-70
2023/01/09 17:01:25;;;;;;;0.63;0.57;;;;;;;5.82;100.00;99352.34;5071862;28;20393;-71
2023/01/09 17:03:51;;;;;;;0.50;0.40;;;;;;;5.75;100.00;99348.72;5071585;28;20089;-70
2023/01/09 17:06:27;;;;;;;2.25;0.60;;;;;;;5.79;100.00;99357.13;5071721;28;20072;-70
2023/01/09 17:08:53;;;;;;;0.93;0.40;;;;;;;5.85;100.00;99359.13;5071356;28;20098;-70
2023/01/09 17:11:22;;;;;;;0.70;0.52;;;;;;;5.82;100.00;99364.75;5071438;28;20040;-69
2023/01/09 17:13:47;;;;;;;0.50;0.50;;;;;;;5.79;100.00;99371.16;5071609;28;20024;-70
2023/01/09 17:16:15;;;;;;;3.25;1.40;;;;;;;5.87;100.00;99381.78;5071408;28;20489;-69
2023/01/09 17:18:41;;;;;;;0.52;0.40;;;;;;;5.84;100.00;99381.25;5071143;28;20043;-70
2023/01/09 17:21:15;;;;;;;2.72;0.70;;;;;;;5.81;100.00;99393.00;5053620;28;20041;-70
2023/01/09 17:23:40;;;;;;;3.05;0.95;;;;;;;5.79;100.00;99394.94;5071599;28;20047;-71
2023/01/09 17:28:58;;;;;;;2.92;1.25;;;;;;;5.76;100.00;99410.31;5071079;28;20040;-70
2023/01/09 17:31:24;;;;;;;0.35;0.35;;;;;;;5.69;100.00;99413.63;5053356;28;20044;-70
2023/01/09 17:33:49;;;;;;;0.75;0.55;;;;;;;5.63;100.00;99424.81;5071132;28;20040;-69
2023/01/09 17:36:33;;;;;;;3.55;0.57;;;;;;;5.65;100.00;99428.13;5095571;22;20132;-68
2023/01/09 17:38:59;;;;;;;1.73;0.95;;;;;;;5.61;100.00;99437.38;5071031;28;20032;-68
2023/01/09 17:41:26;;;;;;;0.80;0.75;;;;;;;5.57;100.00;99446.59;5071298;28;20052;-67
2023/01/09 17:43:52;;;;;;;1.23;0.82;;;;;;;5.49;100.00;99461.63;5071225;28;20338;-67